Time;durP1;ratioP1;P1;durP2;ratioP2;P2;SDS_P1;SDS_P2;PMS_P1;PMS_P2;Temp;Humidity;BMP_temperature;BMP_pressure;BME280_temperature;BME280_humidity;BME280_pressure;Samples;Min_cycle;Max_cycle;Signal;HPM_P1;HPM_P2
2022/03/03 00:01:22;;;;;;;30.55;14.90;;;;;;;;;;5082648;28;20430;-50
2022/03/03 00:03:48;;;;;;;31.00;14.30;;;;;;;;;;5079518;28;20032;-48
2022/03/03 00:06:14;;;;;;;32.67;16.00;;;;;;;;;;5089768;28;20120;-48
2022/03/03 00:08:39;;;;;;;30.92;13.25;;;;;;;;;;5091154;28;20183;-52
2022/03/03 00:11:05;;;;;;;32.08;14.48;;;;;;;;;;5089120;28;20499;-51
2022/03/03 00:13:31;;;;;;;41.22;15.55;;;;;;;;;;5081535;28;20388;-53
2022/03/03 00:15:57;;;;;;;29.33;14.63;;;;;;;;;;5083952;28;20012;-54
2022/03/03 00:18:23;;;;;;;31.90;15.23;;;;;;;;;;5084631;28;20039;-48
2022/03/03 00:20:49;;;;;;;26.63;14.15;;;;;;;;;;5088983;28;20464;-50
2022/03/03 00:23:15;;;;;;;34.00;14.93;;;;;;;;;;5089171;28;20042;-48
2022/03/03 00:25:41;;;;;;;29.35;14.27;;;;;;;;;;5086150;28;20081;-48
2022/03/03 00:28:07;;;;;;;28.60;13.38;;;;;;;;;;5087083;28;20474;-51
2022/03/03 00:30:33;;;;;;;31.77;13.10;;;;;;;;;;5078877;28;20017;-51
2022/03/03 00:32:59;;;;;;;29.75;13.52;;;;;;;;;;5086946;28;20032;-51
2022/03/03 00:35:25;;;;;;;27.05;13.57;;;;;;;;;;5086172;28;20490;-49
2022/03/03 00:37:51;;;;;;;31.13;13.57;;;;;;;;;;5089301;28;20357;-48
2022/03/03 00:40:17;;;;;;;28.58;14.00;;;;;;;;;;5087677;28;20029;-48
2022/03/03 00:42:43;;;;;;;28.13;14.05;;;;;;;;;;5086874;28;20027;-49
2022/03/03 00:45:09;;;;;;;29.30;13.57;;;;;;;;;;5085026;28;20419;-52
2022/03/03 00:47:35;;;;;;;31.50;13.40;;;;;;;;;;5081749;28;20021;-52
2022/03/03 00:50:01;;;;;;;29.63;14.35;;;;;;;;;;5083498;28;20472;-51
2022/03/03 00:52:27;;;;;;;33.83;14.00;;;;;;;;;;5081310;28;20060;-48
2022/03/03 00:54:53;;;;;;;29.25;14.27;;;;;;;;;;5090103;28;20039;-49
2022/03/03 00:57:19;;;;;;;28.75;14.57;;;;;;;;;;5087407;28;20039;-48
2022/03/03 00:59:45;;;;;;;23.58;13.10;;;;;;;;;;5086553;28;20101;-49
2022/03/03 01:02:11;;;;;;;34.08;14.35;;;;;;;;;;5081730;28;20028;-51
2022/03/03 01:04:37;;;;;;;29.10;14.13;;;;;;;;;;5081400;28;20387;-49
2022/03/03 01:07:03;;;;;;;32.08;14.88;;;;;;;;;;5090694;28;20036;-48
2022/03/03 01:09:29;;;;;;;35.50;14.55;;;;;;;;;;5090706;28;20472;-51
2022/03/03 01:11:55;;;;;;;34.03;15.02;;;;;;;;;;5089587;28;20059;-48
2022/03/03 01:14:23;;;;;;;29.75;15.60;;;;;;;;;;5087955;28;20697;-51
2022/03/03 01:16:50;;;;;;;28.48;14.52;;;;;;;;;;5082034;28;20039;-49
2022/03/03 01:19:16;;;;;;;33.50;14.90;;;;;;;;;;5075890;28;20166;-52
2022/03/03 01:21:42;;;;;;;27.52;13.35;;;;;;;;;;5084340;28;20024;-53
2022/03/03 01:24:08;;;;;;;30.85;14.38;;;;;;;;;;5087175;28;20029;-53
2022/03/03 01:26:34;;;;;;;27.77;13.07;;;;;;;;;;5085191;28;20107;-52
2022/03/03 01:29:00;;;;;;;30.60;13.57;;;;;;;;;;5081031;28;20020;-51
2022/03/03 01:31:26;;;;;;;25.27;13.25;;;;;;;;;;5094481;28;20112;-51
2022/03/03 01:33:52;;;;;;;31.80;14.40;;;;;;;;;;5083581;28;20032;-49
2022/03/03 01:36:18;;;;;;;28.25;12.93;;;;;;;;;;5078628;28;20032;-49
2022/03/03 01:38:44;;;;;;;26.77;13.60;;;;;;;;;;5095814;28;20016;-48
2022/03/03 01:41:10;;;;;;;28.13;13.35;;;;;;;;;;5093442;28;20030;-48
2022/03/03 01:43:38;;;;;;;28.42;13.43;;;;;;;;;;5076574;28;20024;-51
2022/03/03 01:46:04;;;;;;;30.40;13.55;;;;;;;;;;5088716;28;20031;-51
2022/03/03 01:48:30;;;;;;;27.30;14.13;;;;;;;;;;5093054;28;20367;-51
2022/03/03 01:50:56;;;;;;;27.75;12.80;;;;;;;;;;5084941;28;20032;-50
2022/03/03 01:53:22;;;;;;;31.25;13.98;;;;;;;;;;5081650;28;20029;-49
2022/03/03 01:55:50;;;;;;;31.38;13.57;;;;;;;;;;5089877;28;20056;-51
2022/03/03 01:58:16;;;;;;;28.73;14.57;;;;;;;;;;5086593;28;20497;-49
2022/03/03 02:00:43;;;;;;;29.20;14.63;;;;;;;;;;5090523;28;20069;-49
2022/03/03 02:03:10;;;;;;;25.55;13.82;;;;;;;;;;5092485;28;20028;-49
2022/03/03 02:05:36;;;;;;;34.30;14.45;;;;;;;;;;5086330;28;20588;-51
2022/03/03 02:08:02;;;;;;;27.55;13.80;;;;;;;;;;5079482;28;20032;-49
2022/03/03 02:10:28;;;;;;;29.83;13.60;;;;;;;;;;5085621;28;20515;-52
2022/03/03 02:12:54;;;;;;;36.55;14.40;;;;;;;;;;5081909;28;20094;-53
2022/03/03 02:15:21;;;;;;;26.15;14.00;;;;;;;;;;5092914;28;20032;-54
2022/03/03 02:17:47;;;;;;;29.20;13.35;;;;;;;;;;5082521;28;20033;-53
2022/03/03 02:20:19;;;;;;;27.35;13.48;;;;;;;;;;5090255;28;20024;-50
2022/03/03 02:22:45;;;;;;;29.43;14.13;;;;;;;;;;5082768;28;20025;-49
2022/03/03 02:25:11;;;;;;;31.35;14.05;;;;;;;;;;5087191;28;20028;-50
2022/03/03 02:27:38;;;;;;;30.95;14.25;;;;;;;;;;5089518;28;20035;-49
2022/03/03 02:30:04;;;;;;;29.27;13.73;;;;;;;;;;5090898;28;20032;-50
2022/03/03 02:32:30;;;;;;;32.63;14.80;;;;;;;;;;5090152;28;20028;-53
2022/03/03 02:34:56;;;;;;;30.38;13.18;;;;;;;;;;5091859;28;20444;-49
2022/03/03 02:37:22;;;;;;;32.63;13.48;;;;;;;;;;5084767;28;20516;-49
2022/03/03 02:39:48;;;;;;;31.00;12.93;;;;;;;;;;5093456;28;20035;-48
2022/03/03 02:42:14;;;;;;;32.35;13.95;;;;;;;;;;5086792;28;20024;-49
2022/03/03 02:44:40;;;;;;;28.25;13.88;;;;;;;;;;5087545;28;20028;-50
2022/03/03 02:47:06;;;;;;;28.65;13.95;;;;;;;;;;5094375;28;20085;-54
2022/03/03 02:49:32;;;;;;;30.55;13.35;;;;;;;;;;5086387;28;20492;-53
2022/03/03 02:51:58;;;;;;;26.17;13.20;;;;;;;;;;5084117;28;20039;-49
2022/03/03 02:54:24;;;;;;;27.70;14.20;;;;;;;;;;5080693;28;20099;-53
2022/03/03 02:59:35;;;;;;;28.17;13.40;;;;;;;;;;5089196;28;20043;-52
2022/03/03 03:02:01;;;;;;;26.17;13.15;;;;;;;;;;5086028;28;20029;-49
2022/03/03 03:04:27;;;;;;;27.55;13.25;;;;;;;;;;5086836;28;20036;-49
2022/03/03 03:06:53;;;;;;;30.38;14.07;;;;;;;;;;5086458;28;20108;-49
2022/03/03 03:09:19;;;;;;;26.85;13.25;;;;;;;;;;5089586;28;20045;-51
2022/03/03 03:11:44;;;;;;;33.45;13.30;;;;;;;;;;5086890;28;20025;-49
2022/03/03 03:14:10;;;;;;;28.75;13.57;;;;;;;;;;5084221;28;20032;-49
2022/03/03 03:16:36;;;;;;;30.05;12.90;;;;;;;;;;5086866;28;20037;-49
2022/03/03 03:19:03;;;;;;;26.67;13.18;;;;;;;;;;5082573;28;20028;-53
2022/03/03 03:21:28;;;;;;;26.27;12.57;;;;;;;;;;5091145;28;20046;-54
2022/03/03 03:23:54;;;;;;;33.45;14.02;;;;;;;;;;5086994;28;20028;-53
2022/03/03 03:26:20;;;;;;;30.52;13.30;;;;;;;;;;5089828;28;20479;-54
2022/03/03 03:28:46;;;;;;;34.25;13.30;;;;;;;;;;5086478;28;20540;-51
2022/03/03 03:31:12;;;;;;;27.77;13.40;;;;;;;;;;5091218;28;20111;-51
2022/03/03 03:33:38;;;;;;;27.35;13.75;;;;;;;;;;5085941;28;20032;-50
2022/03/03 03:36:04;;;;;;;31.88;12.23;;;;;;;;;;5086410;28;20021;-52
2022/03/03 03:38:30;;;;;;;27.58;13.10;;;;;;;;;;5090362;28;20028;-54
2022/03/03 03:40:56;;;;;;;29.25;13.68;;;;;;;;;;5079370;28;20074;-55
2022/03/03 03:43:22;;;;;;;31.23;14.43;;;;;;;;;;5078907;28;20063;-48
2022/03/03 03:45:48;;;;;;;31.05;14.85;;;;;;;;;;5083640;28;20441;-52
2022/03/03 03:48:15;;;;;;;28.73;13.52;;;;;;;;;;5085561;28;20056;-51
2022/03/03 03:50:41;;;;;;;26.88;13.18;;;;;;;;;;5084775;28;20036;-54
2022/03/03 03:53:07;;;;;;;31.00;13.85;;;;;;;;;;5080500;28;20058;-52
2022/03/03 03:55:33;;;;;;;27.35;14.20;;;;;;;;;;5085389;28;20115;-52
2022/03/03 03:57:59;;;;;;;25.88;12.07;;;;;;;;;;5090976;28;20073;-50
2022/03/03 04:00:25;;;;;;;27.40;12.40;;;;;;;;;;5088840;28;20032;-49
2022/03/03 04:02:51;;;;;;;26.17;12.82;;;;;;;;;;5092162;28;20062;-52
2022/03/03 04:05:17;;;;;;;29.15;13.30;;;;;;;;;;5090953;28;20043;-49
2022/03/03 04:07:43;;;;;;;29.17;13.93;;;;;;;;;;5085969;28;20032;-49
2022/03/03 04:10:09;;;;;;;32.20;12.85;;;;;;;;;;5090553;28;20024;-49
2022/03/03 04:12:35;;;;;;;27.75;12.23;;;;;;;;;;5080124;28;20066;-49
2022/03/03 04:15:01;;;;;;;27.80;12.95;;;;;;;;;;5078354;28;20093;-50
2022/03/03 04:17:27;;;;;;;25.50;12.52;;;;;;;;;;5075329;28;20059;-50
2022/03/03 04:19:53;;;;;;;24.65;12.57;;;;;;;;;;5081592;28;20342;-52
2022/03/03 04:22:19;;;;;;;28.98;12.40;;;;;;;;;;5092400;28;20035;-53
2022/03/03 04:24:45;;;;;;;30.27;12.98;;;;;;;;;;5086629;28;20020;-54
2022/03/03 04:27:11;;;;;;;27.80;12.43;;;;;;;;;;5089965;28;20024;-50
2022/03/03 04:29:37;;;;;;;24.30;12.85;;;;;;;;;;5084068;28;20024;-53
2022/03/03 04:32:04;;;;;;;29.27;14.15;;;;;;;;;;5092250;28;20039;-48
2022/03/03 04:34:30;;;;;;;30.55;13.32;;;;;;;;;;5086388;28;20039;-49
2022/03/03 04:36:56;;;;;;;31.00;13.88;;;;;;;;;;5088792;28;20095;-51
2022/03/03 04:39:22;;;;;;;26.98;13.25;;;;;;;;;;5080299;28;20025;-50
2022/03/03 04:41:48;;;;;;;26.90;13.27;;;;;;;;;;5085013;28;20112;-49
2022/03/03 04:44:14;;;;;;;29.50;14.25;;;;;;;;;;5089827;28;20032;-49
2022/03/03 04:46:40;;;;;;;31.75;13.27;;;;;;;;;;5090587;28;20024;-52
2022/03/03 04:49:07;;;;;;;25.20;13.32;;;;;;;;;;5089132;28;20068;-52
2022/03/03 04:51:36;;;;;;;31.48;14.00;;;;;;;;;;5080531;28;20083;-52
2022/03/03 04:54:03;;;;;;;29.90;14.77;;;;;;;;;;5092216;28;20206;-52
2022/03/03 04:56:29;;;;;;;31.65;14.32;;;;;;;;;;5092457;28;20107;-51
2022/03/03 04:58:55;;;;;;;28.95;12.73;;;;;;;;;;5089166;28;20036;-52
2022/03/03 05:01:21;;;;;;;28.63;13.43;;;;;;;;;;5081181;28;20032;-53
2022/03/03 05:03:47;;;;;;;32.47;13.00;;;;;;;;;;5089276;28;20169;-48
2022/03/03 05:06:13;;;;;;;32.63;13.40;;;;;;;;;;5086063;28;20030;-51
2022/03/03 05:08:39;;;;;;;33.90;15.07;;;;;;;;;;5093727;28;20028;-51
2022/03/03 05:11:05;;;;;;;32.17;14.13;;;;;;;;;;5082695;28;20037;-51
2022/03/03 05:13:31;;;;;;;31.10;14.90;;;;;;;;;;5092962;28;20647;-49
2022/03/03 05:15:57;;;;;;;30.13;14.07;;;;;;;;;;5092857;28;20373;-50
2022/03/03 05:18:23;;;;;;;31.98;14.93;;;;;;;;;;5081205;28;20046;-49
2022/03/03 05:20:49;;;;;;;32.05;14.63;;;;;;;;;;5088360;28;20024;-53
2022/03/03 05:23:15;;;;;;;36.05;15.32;;;;;;;;;;5084699;28;20485;-49
2022/03/03 05:25:41;;;;;;;32.35;14.95;;;;;;;;;;5089010;28;20142;-53
2022/03/03 05:28:07;;;;;;;31.83;14.25;;;;;;;;;;5092967;28;20034;-53
2022/03/03 05:30:33;;;;;;;35.25;15.48;;;;;;;;;;5095871;28;20040;-50
2022/03/03 05:32:59;;;;;;;29.02;14.35;;;;;;;;;;5094126;28;20050;-51
2022/03/03 05:35:25;;;;;;;32.90;14.05;;;;;;;;;;5091392;28;20464;-52
2022/03/03 05:37:51;;;;;;;25.73;13.40;;;;;;;;;;5089738;28;20024;-49
2022/03/03 05:40:17;;;;;;;32.90;13.43;;;;;;;;;;5094873;28;20028;-49
2022/03/03 05:42:43;;;;;;;31.92;13.70;;;;;;;;;;5089406;28;20539;-48
2022/03/03 05:45:10;;;;;;;27.55;13.50;;;;;;;;;;5081756;28;20475;-49
2022/03/03 05:47:36;;;;;;;31.23;13.63;;;;;;;;;;5082582;28;20028;-50
2022/03/03 05:50:03;;;;;;;28.30;13.45;;;;;;;;;;5089655;28;20465;-54
2022/03/03 05:52:29;;;;;;;32.97;14.25;;;;;;;;;;5084521;28;20064;-49
2022/03/03 05:54:55;;;;;;;31.58;14.55;;;;;;;;;;5091516;28;20453;-53
2022/03/03 05:57:27;;;;;;;26.35;14.50;;;;;;;;;;5087217;28;20043;-50
2022/03/03 05:59:53;;;;;;;33.03;13.65;;;;;;;;;;5089102;28;20024;-50
2022/03/03 06:02:20;;;;;;;28.73;14.40;;;;;;;;;;5086132;28;20032;-49
2022/03/03 06:04:48;;;;;;;28.52;13.77;;;;;;;;;;5088881;28;20166;-49
2022/03/03 06:07:17;;;;;;;31.27;14.43;;;;;;;;;;5089274;28;20035;-49
2022/03/03 06:09:46;;;;;;;33.33;13.88;;;;;;;;;;5084554;28;20027;-48
2022/03/03 06:12:20;;;;;;;29.33;13.90;;;;;;;;;;5086770;28;20437;-49
2022/03/03 06:14:54;;;;;;;32.50;14.95;;;;;;;;;;5077225;28;20025;-49
2022/03/03 06:17:23;;;;;;;32.38;15.43;;;;;;;;;;5086495;28;20496;-50
2022/03/03 06:19:51;;;;;;;30.50;14.20;;;;;;;;;;5078150;28;20052;-49
2022/03/03 06:22:17;;;;;;;35.90;16.00;;;;;;;;;;5083356;28;20476;-50
2022/03/03 06:24:43;;;;;;;33.70;13.85;;;;;;;;;;5086517;28;20055;-50
2022/03/03 06:27:09;;;;;;;30.35;14.38;;;;;;;;;;5088626;28;20452;-48
2022/03/03 06:29:38;;;;;;;30.58;15.05;;;;;;;;;;5073926;28;20369;-51
2022/03/03 06:32:04;;;;;;;33.20;15.45;;;;;;;;;;5091764;28;20032;-54
2022/03/03 06:34:30;;;;;;;32.65;15.65;;;;;;;;;;5076548;28;20032;-49
2022/03/03 06:36:56;;;;;;;33.35;14.95;;;;;;;;;;5087643;28;20032;-49
2022/03/03 06:39:22;;;;;;;32.78;15.43;;;;;;;;;;5087956;28;20373;-49
2022/03/03 06:41:48;;;;;;;35.40;15.27;;;;;;;;;;5079613;28;20020;-52
2022/03/03 06:44:14;;;;;;;36.88;16.48;;;;;;;;;;5091073;28;20032;-49
2022/03/03 06:46:41;;;;;;;37.42;17.15;;;;;;;;;;5088688;28;20024;-50
2022/03/03 06:49:07;;;;;;;35.80;16.75;;;;;;;;;;5086306;28;20059;-51
2022/03/03 06:51:41;;;;;;;43.88;17.08;;;;;;;;;;5083197;28;20037;-52
2022/03/03 06:54:08;;;;;;;36.00;16.40;;;;;;;;;;5091191;28;20531;-53
2022/03/03 06:56:36;;;;;;;35.53;17.30;;;;;;;;;;5076387;28;20028;-50
2022/03/03 06:59:02;;;;;;;38.85;16.88;;;;;;;;;;5077199;28;20074;-49
2022/03/03 07:01:29;;;;;;;39.53;16.08;;;;;;;;;;5085945;28;20027;-50
2022/03/03 07:03:56;;;;;;;38.47;18.27;;;;;;;;;;5081875;28;20111;-53
2022/03/03 07:06:22;;;;;;;43.42;18.65;;;;;;;;;;5090735;28;20504;-55
2022/03/03 07:08:50;;;;;;;45.70;20.50;;;;;;;;;;5093401;28;20529;-51
2022/03/03 07:11:16;;;;;;;46.67;19.17;;;;;;;;;;5092359;28;20475;-53
2022/03/03 07:13:44;;;;;;;47.35;20.27;;;;;;;;;;5090996;28;20028;-52
2022/03/03 07:16:23;;;;;;;53.60;21.65;;;;;;;;;;5091117;28;20040;-50
2022/03/03 07:18:53;;;;;;;56.88;20.60;;;;;;;;;;5087524;28;20059;-53
2022/03/03 07:21:38;;;;;;;52.08;20.85;;;;;;;;;;5088577;28;20035;-53
2022/03/03 07:24:09;;;;;;;53.53;21.20;;;;;;;;;;5086226;28;20055;-51
2022/03/03 07:26:36;;;;;;;54.50;21.95;;;;;;;;;;5086797;28;20024;-49
2022/03/03 07:29:04;;;;;;;49.75;21.23;;;;;;;;;;5093314;28;20099;-50
2022/03/03 07:31:31;;;;;;;55.75;21.38;;;;;;;;;;5091185;28;20090;-49
2022/03/03 07:34:00;;;;;;;55.03;21.15;;;;;;;;;;5081947;28;20040;-50
2022/03/03 07:36:30;;;;;;;51.90;21.20;;;;;;;;;;5091688;28;20075;-50
2022/03/03 07:39:00;;;;;;;53.03;20.75;;;;;;;;;;5088360;28;20038;-49
2022/03/03 07:41:28;;;;;;;50.67;20.45;;;;;;;;;;5091956;28;20024;-50
2022/03/03 07:43:54;;;;;;;53.33;22.02;;;;;;;;;;5083710;28;20020;-49
2022/03/03 07:46:20;;;;;;;51.80;21.92;;;;;;;;;;5091084;28;20452;-53
2022/03/03 07:48:46;;;;;;;51.13;21.35;;;;;;;;;;5085658;28;20028;-51
2022/03/03 07:51:13;;;;;;;57.03;23.13;;;;;;;;;;5081682;28;20024;-54
2022/03/03 07:53:39;;;;;;;58.75;23.45;;;;;;;;;;5083279;28;20111;-53
2022/03/03 07:56:07;;;;;;;53.70;21.80;;;;;;;;;;5082097;28;20116;-53
2022/03/03 07:58:34;;;;;;;59.53;23.15;;;;;;;;;;5086106;28;20036;-49
2022/03/03 08:01:01;;;;;;;54.28;22.20;;;;;;;;;;5080422;28;20024;-49
2022/03/03 08:03:27;;;;;;;57.13;22.70;;;;;;;;;;5092602;28;20074;-49
2022/03/03 08:05:58;;;;;;;56.72;22.90;;;;;;;;;;5091184;28;20034;-50
2022/03/03 08:08:26;;;;;;;52.03;22.65;;;;;;;;;;5086206;28;20549;-49
2022/03/03 08:10:53;;;;;;;55.15;21.17;;;;;;;;;;5092597;28;20039;-49
2022/03/03 08:13:19;;;;;;;54.67;21.08;;;;;;;;;;5090163;28;20032;-54
2022/03/03 08:15:46;;;;;;;60.58;23.25;;;;;;;;;;5092718;28;20113;-52
2022/03/03 08:18:14;;;;;;;46.35;20.10;;;;;;;;;;5086927;28;20028;-50
2022/03/03 08:20:40;;;;;;;47.95;20.02;;;;;;;;;;5091485;28;20464;-52
2022/03/03 08:23:07;;;;;;;51.15;20.38;;;;;;;;;;5092062;28;20056;-54
2022/03/03 08:25:34;;;;;;;47.65;18.10;;;;;;;;;;5092952;28;20024;-51
2022/03/03 08:28:02;;;;;;;47.20;19.48;;;;;;;;;;5081853;28;20465;-53
2022/03/03 08:30:29;;;;;;;52.83;18.90;;;;;;;;;;5078913;28;20492;-50
2022/03/03 08:33:06;;;;;;;43.40;18.08;;;;;;;;;;5086511;28;20080;-54
2022/03/03 08:35:36;;;;;;;41.53;16.55;;;;;;;;;;5087652;28;20031;-49
2022/03/03 08:38:11;;;;;;;44.67;16.85;;;;;;;;;;5085125;28;20058;-50
2022/03/03 08:40:37;;;;;;;40.33;17.02;;;;;;;;;;5092370;28;20471;-50
2022/03/03 08:43:05;;;;;;;42.53;17.05;;;;;;;;;;5091638;28;20034;-50
2022/03/03 08:45:32;;;;;;;40.25;15.82;;;;;;;;;;5092211;28;20032;-50
2022/03/03 08:48:03;;;;;;;39.10;16.45;;;;;;;;;;5082410;28;20020;-49
2022/03/03 08:50:30;;;;;;;38.03;14.90;;;;;;;;;;5078715;28;20086;-48
2022/03/03 08:52:57;;;;;;;31.83;15.10;;;;;;;;;;5081254;28;20048;-48
2022/03/03 08:55:24;;;;;;;35.55;14.57;;;;;;;;;;5085604;28;20082;-49
2022/03/03 08:57:50;;;;;;;35.55;14.27;;;;;;;;;;5091276;28;20024;-51
2022/03/03 09:00:16;;;;;;;35.88;13.65;;;;;;;;;;5091665;28;20028;-53
2022/03/03 09:02:43;;;;;;;37.75;14.65;;;;;;;;;;5080336;28;20388;-53
2022/03/03 09:05:10;;;;;;;35.90;14.68;;;;;;;;;;5081973;28;20028;-54
2022/03/03 09:07:35;;;;;;;34.60;13.75;;;;;;;;;;5086690;28;20078;-48
2022/03/03 09:10:02;;;;;;;34.78;14.82;;;;;;;;;;5089842;28;20419;-54
2022/03/03 09:12:28;;;;;;;39.47;14.88;;;;;;;;;;5086392;28;20036;-53
2022/03/03 09:14:54;;;;;;;36.05;13.90;;;;;;;;;;5087525;28;20056;-53
2022/03/03 09:17:20;;;;;;;34.90;13.85;;;;;;;;;;5084655;28;20434;-51
2022/03/03 09:19:47;;;;;;;27.63;11.70;;;;;;;;;;5081286;28;20036;-50
2022/03/03 09:22:13;;;;;;;29.52;12.57;;;;;;;;;;5089749;28;20029;-53
2022/03/03 09:24:39;;;;;;;29.25;12.30;;;;;;;;;;5089779;28;20231;-52
2022/03/03 09:27:05;;;;;;;25.75;12.15;;;;;;;;;;5079281;28;20434;-49
2022/03/03 09:29:33;;;;;;;26.95;11.80;;;;;;;;;;5077331;28;20028;-48
2022/03/03 09:31:59;;;;;;;29.40;12.07;;;;;;;;;;5082475;28;20484;-50
2022/03/03 09:34:26;;;;;;;25.88;12.00;;;;;;;;;;5090936;28;20487;-51
2022/03/03 09:36:52;;;;;;;29.23;12.30;;;;;;;;;;5091888;28;20463;-55
2022/03/03 09:39:18;;;;;;;31.33;14.15;;;;;;;;;;5090371;28;20113;-52
2022/03/03 09:41:44;;;;;;;28.65;12.68;;;;;;;;;;5076094;28;20047;-50
2022/03/03 09:44:10;;;;;;;33.40;13.25;;;;;;;;;;5091647;28;20429;-52
2022/03/03 09:46:37;;;;;;;30.52;13.65;;;;;;;;;;5091722;28;20020;-48
2022/03/03 09:49:04;;;;;;;34.72;14.60;;;;;;;;;;5086639;28;20133;-50
2022/03/03 09:51:30;;;;;;;26.60;12.82;;;;;;;;;;5084146;28;20041;-54
2022/03/03 09:53:56;;;;;;;28.25;13.48;;;;;;;;;;5088572;28;20100;-49
2022/03/03 09:56:22;;;;;;;30.35;12.98;;;;;;;;;;5095230;28;20465;-48
2022/03/03 09:58:48;;;;;;;29.25;12.27;;;;;;;;;;5094722;28;20024;-49
2022/03/03 10:01:17;;;;;;;27.42;12.23;;;;;;;;;;5094922;28;20162;-49
2022/03/03 10:03:47;;;;;;;23.42;10.70;;;;;;;;;;5094854;28;20018;-49
2022/03/03 10:06:13;;;;;;;26.38;11.30;;;;;;;;;;5091226;28;20380;-54
2022/03/03 10:08:39;;;;;;;27.00;12.10;;;;;;;;;;5079073;28;20051;-50
2022/03/03 10:11:07;;;;;;;29.00;12.02;;;;;;;;;;5094668;28;20049;-53
2022/03/03 10:13:48;;;;;;;33.17;12.90;;;;;;;;;;5093855;28;20035;-49
2022/03/03 10:16:25;;;;;;;27.00;11.90;;;;;;;;;;5092724;28;20107;-53
2022/03/03 10:18:53;;;;;;;30.88;12.10;;;;;;;;;;5090901;28;20031;-48
2022/03/03 10:21:19;;;;;;;27.73;12.65;;;;;;;;;;5094265;28;20099;-48
2022/03/03 10:23:45;;;;;;;26.88;11.43;;;;;;;;;;5094793;28;20482;-50
2022/03/03 10:26:12;;;;;;;27.75;12.02;;;;;;;;;;5094548;28;20020;-52
2022/03/03 10:28:38;;;;;;;22.63;11.02;;;;;;;;;;5084187;28;20020;-52
2022/03/03 10:31:06;;;;;;;22.75;11.15;;;;;;;;;;5094328;28;20115;-53
2022/03/03 10:33:34;;;;;;;25.83;11.40;;;;;;;;;;5094451;28;20395;-52
2022/03/03 10:36:03;;;;;;;24.33;11.10;;;;;;;;;;5094200;28;20020;-53
2022/03/03 10:38:29;;;;;;;28.17;12.60;;;;;;;;;;5094601;28;20028;-53
2022/03/03 10:40:55;;;;;;;29.50;12.73;;;;;;;;;;5094198;28;20091;-53
2022/03/03 10:43:21;;;;;;;35.30;14.63;;;;;;;;;;5094494;28;20028;-51
2022/03/03 10:45:58;;;;;;;33.83;14.68;;;;;;;;;;5094339;28;20106;-49
2022/03/03 10:48:25;;;;;;;33.85;14.48;;;;;;;;;;5088337;28;20392;-49
2022/03/03 10:50:51;;;;;;;39.28;15.93;;;;;;;;;;5090042;28;20028;-48
2022/03/03 10:53:18;;;;;;;27.92;13.40;;;;;;;;;;5092771;28;20105;-54
2022/03/03 10:56:00;;;;;;;32.90;13.88;;;;;;;;;;5094418;28;20059;-54
2022/03/03 10:58:43;;;;;;;27.85;12.68;;;;;;;;;;5093898;28;20035;-53
2022/03/03 11:01:09;;;;;;;29.25;11.90;;;;;;;;;;5093728;28;20020;-53
2022/03/03 11:03:35;;;;;;;27.88;11.68;;;;;;;;;;5094037;28;20035;-51
2022/03/03 11:06:03;;;;;;;27.80;12.05;;;;;;;;;;5086223;28;20024;-49
2022/03/03 11:08:29;;;;;;;23.17;11.00;;;;;;;;;;5088955;28;20111;-54
2022/03/03 11:10:55;;;;;;;25.35;12.10;;;;;;;;;;5092787;28;20025;-49
2022/03/03 11:13:21;;;;;;;20.67;9.93;;;;;;;;;;5093450;28;20096;-51
2022/03/03 11:15:48;;;;;;;23.50;10.95;;;;;;;;;;5093975;28;20028;-49
2022/03/03 11:18:18;;;;;;;24.45;11.02;;;;;;;;;;5092814;28;20040;-49
2022/03/03 11:20:44;;;;;;;31.63;12.65;;;;;;;;;;5092419;28;20027;-49
2022/03/03 11:23:10;;;;;;;29.23;12.63;;;;;;;;;;5091674;28;20032;-49
2022/03/03 11:25:37;;;;;;;26.10;12.07;;;;;;;;;;5093242;28;20032;-49
2022/03/03 11:28:05;;;;;;;25.85;11.27;;;;;;;;;;5082569;28;20438;-48
2022/03/03 11:30:31;;;;;;;30.08;11.38;;;;;;;;;;5093733;28;20367;-49
2022/03/03 11:33:16;;;;;;;24.15;10.18;;;;;;;;;;5093002;28;20035;-53
2022/03/03 11:36:00;;;;;;;19.88;10.65;;;;;;;;;;5093347;28;20028;-51
2022/03/03 11:38:28;;;;;;;21.13;10.88;;;;;;;;;;5093272;28;20078;-49
2022/03/03 11:40:58;;;;;;;24.17;11.40;;;;;;;;;;5093068;28;20108;-52
2022/03/03 11:43:25;;;;;;;27.90;12.50;;;;;;;;;;5093357;28;20056;-52
2022/03/03 11:45:53;;;;;;;26.65;11.77;;;;;;;;;;5093311;28;20397;-51
2022/03/03 11:48:23;;;;;;;27.48;11.02;;;;;;;;;;5087644;28;20064;-53
2022/03/03 11:50:50;;;;;;;22.25;11.63;;;;;;;;;;5087371;28;20028;-52
2022/03/03 11:53:18;;;;;;;24.02;10.63;;;;;;;;;;5092776;28;20055;-53
2022/03/03 11:56:03;;;;;;;23.10;10.77;;;;;;;;;;5093163;28;20035;-50
2022/03/03 11:58:34;;;;;;;23.90;10.68;;;;;;;;;;5092944;28;20020;-54
2022/03/03 12:01:02;;;;;;;22.35;10.85;;;;;;;;;;5092390;28;20378;-52
2022/03/03 12:03:28;;;;;;;26.75;11.70;;;;;;;;;;5093168;28;20089;-52
2022/03/03 12:06:04;;;;;;;21.30;10.57;;;;;;;;;;5086986;28;20063;-50
2022/03/03 12:08:32;;;;;;;23.30;10.57;;;;;;;;;;5090190;28;20043;-50
2022/03/03 12:11:00;;;;;;;21.80;10.05;;;;;;;;;;5080959;28;20658;-49
2022/03/03 12:13:26;;;;;;;17.92;9.38;;;;;;;;;;5089448;28;20147;-52
2022/03/03 12:16:11;;;;;;;23.30;10.27;;;;;;;;;;5092956;28;20071;-51
2022/03/03 12:18:37;;;;;;;20.63;10.07;;;;;;;;;;5089329;28;20032;-49
2022/03/03 12:21:21;;;;;;;23.52;10.48;;;;;;;;;;5092141;28;20031;-49
2022/03/03 12:23:48;;;;;;;20.65;10.02;;;;;;;;;;5092414;28;20489;-51
2022/03/03 12:26:14;;;;;;;23.30;10.45;;;;;;;;;;5092685;28;20031;-50
2022/03/03 12:28:41;;;;;;;16.67;7.78;;;;;;;;;;5091187;28;20069;-53
2022/03/03 12:31:19;;;;;;;16.45;7.68;;;;;;;;;;5079077;28;20024;-49
2022/03/03 12:34:01;;;;;;;17.50;7.95;;;;;;;;;;5080755;28;20036;-53
2022/03/03 12:36:28;;;;;;;19.08;7.90;;;;;;;;;;5092117;28;20059;-51
2022/03/03 12:38:55;;;;;;;19.08;8.35;;;;;;;;;;5092289;28;20046;-48
2022/03/03 12:41:24;;;;;;;21.42;8.52;;;;;;;;;;5086915;28;20036;-52
2022/03/03 12:43:50;;;;;;;19.08;8.27;;;;;;;;;;5090066;28;20605;-53
2022/03/03 12:46:16;;;;;;;20.10;8.82;;;;;;;;;;5091252;28;20029;-53
2022/03/03 12:48:45;;;;;;;17.60;8.55;;;;;;;;;;5075931;28;20038;-52
2022/03/03 12:51:11;;;;;;;15.25;7.53;;;;;;;;;;5090318;28;20036;-50
2022/03/03 12:53:43;;;;;;;16.58;7.85;;;;;;;;;;5092506;28;20109;-50
2022/03/03 12:56:10;;;;;;;13.48;6.40;;;;;;;;;;5083790;28;20043;-50
2022/03/03 12:58:36;;;;;;;14.70;6.70;;;;;;;;;;5080439;28;20139;-49
2022/03/03 13:01:03;;;;;;;16.02;7.18;;;;;;;;;;5091489;28;20028;-48
2022/03/03 13:03:33;;;;;;;16.20;6.90;;;;;;;;;;5092153;28;20024;-48
2022/03/03 13:06:03;;;;;;;15.93;7.03;;;;;;;;;;5092079;28;20382;-50
2022/03/03 13:08:29;;;;;;;14.75;6.97;;;;;;;;;;5089801;28;20020;-49
2022/03/03 13:11:02;;;;;;;14.88;6.57;;;;;;;;;;5072669;28;20028;-49
2022/03/03 13:13:28;;;;;;;;;;;;;;;;;;5090338;28;20030;-49
2022/03/03 13:15:54;;;;;;;17.40;6.90;;;;;;;;;;5091700;28;19983;-50
2022/03/03 13:18:21;;;;;;;13.52;6.00;;;;;;;;;;5074744;28;20051;-53
2022/03/03 13:20:55;;;;;;;17.27;6.85;;;;;;;;;;5084620;28;20028;-54
2022/03/03 13:23:22;;;;;;;15.15;6.90;;;;;;;;;;5080207;28;20435;-54
2022/03/03 13:26:02;;;;;;;19.45;7.22;;;;;;;;;;5093534;28;20035;-53
2022/03/03 13:28:29;;;;;;;16.60;6.55;;;;;;;;;;5091582;28;20036;-52
2022/03/03 13:30:56;;;;;;;17.73;7.30;;;;;;;;;;5085781;28;20036;-54
2022/03/03 13:33:39;;;;;;;16.67;6.63;;;;;;;;;;5092221;28;20028;-52
2022/03/03 13:36:11;;;;;;;19.10;7.90;;;;;;;;;;5090214;28;20043;-53
2022/03/03 13:38:37;;;;;;;17.63;6.97;;;;;;;;;;5084584;28;20053;-54
2022/03/03 13:41:19;;;;;;;17.55;7.05;;;;;;;;;;5095203;28;20028;-52
2022/03/03 13:43:44;;;;;;;22.17;8.35;;;;;;;;;;5086928;28;20024;-53
2022/03/03 13:46:11;;;;;;;20.90;7.80;;;;;;;;;;5082362;28;20042;-51
2022/03/03 13:48:36;;;;;;;17.67;7.70;;;;;;;;;;5085827;28;20099;-50
2022/03/03 13:51:04;;;;;;;23.15;7.68;;;;;;;;;;5091691;28;20154;-49
2022/03/03 13:53:32;;;;;;;24.23;8.95;;;;;;;;;;5095504;28;20028;-52
2022/03/03 13:56:06;;;;;;;17.83;7.60;;;;;;;;;;5085192;28;20114;-49
2022/03/03 13:58:32;;;;;;;21.65;9.38;;;;;;;;;;5078628;28;20032;-50
2022/03/03 14:00:58;;;;;;;26.17;8.88;;;;;;;;;;5085406;28;20028;-53
2022/03/03 14:03:38;;;;;;;23.80;8.77;;;;;;;;;;5089258;28;20463;-53
2022/03/03 14:06:05;;;;;;;23.30;9.02;;;;;;;;;;5080209;28;20382;-49
2022/03/03 14:08:42;;;;;;;21.25;9.10;;;;;;;;;;5088239;28;20028;-49
2022/03/03 14:11:11;;;;;;;26.48;9.23;;;;;;;;;;5094031;28;20036;-52
2022/03/03 14:13:52;;;;;;;26.92;9.40;;;;;;;;;;5094716;28;20024;-48
2022/03/03 14:16:36;;;;;;;26.58;10.23;;;;;;;;;;5083155;28;20028;-50
2022/03/03 14:19:02;;;;;;;26.45;9.95;;;;;;;;;;5086415;28;20031;-51
2022/03/03 14:21:29;;;;;;;23.90;10.02;;;;;;;;;;5094201;28;20047;-48
2022/03/03 14:23:55;;;;;;;34.10;10.70;;;;;;;;;;5094749;28;20081;-48